Terminal Aerodrome Forecast
Issued by NWS

Home | Current Version | Previous Version | Text Only | Print | Product List | Glossary On
Versions: 1 2 3 4 5 6 7 8 9 10 11 12 13 14 15 16 17 18 19 20
000
FTUS46 KLOX 121100
TAFPRB
TAF
KPRB 121125Z 1212/1312 31006KT P6SM SKC
     FM121300 VRB03KT P6SM OVC004
     FM121630 VRB03KT P6SM SCT200
     FM122000 20010KT P6SM SCT200
     FM130100 31010KT P6SM SCT200
     FM130800 VRB03KT P6SM SCT200=

USA.gov is the U.S. government's official web portal to all federal, state and local government web resources and services.